sensor_id;sensor_type;location;lat;lon;timestamp;pressure;altitude;pressure_sealevel;temperature;humidity
23433;BME280;41331;45.412;10.992;2023-03-19T00:00:28;101249.56;;;10.44;80.90
23433;BME280;41331;45.412;10.992;2023-03-19T00:02:55;101243.13;;;10.40;81.73
23433;BME280;41331;45.412;10.992;2023-03-19T00:05:23;101242.47;;;10.43;81.75
23433;BME280;41331;45.412;10.992;2023-03-19T00:07:50;101235.25;;;10.38;82.56
23433;BME280;41331;45.412;10.992;2023-03-19T00:10:17;101231.34;;;10.31;82.69
23433;BME280;41331;45.412;10.992;2023-03-19T00:12:45;101241.72;;;10.29;82.79
23433;BME280;41331;45.412;10.992;2023-03-19T00:15:12;101238.50;;;10.27;83.25
23433;BME280;41331;45.412;10.992;2023-03-19T00:17:41;101235.88;;;10.22;83.20
23433;BME280;41331;45.412;10.992;2023-03-19T00:20:10;101229.31;;;10.23;83.36
23433;BME280;41331;45.412;10.992;2023-03-19T00:22:38;101226.59;;;10.23;83.80
23433;BME280;41331;45.412;10.992;2023-03-19T00:25:07;101245.56;;;10.14;83.75
23433;BME280;41331;45.412;10.992;2023-03-19T00:27:36;101233.00;;;10.04;84.30
23433;BME280;41331;45.412;10.992;2023-03-19T00:30:05;101238.13;;;10.06;83.96
23433;BME280;41331;45.412;10.992;2023-03-19T00:32:33;101244.97;;;10.03;83.97
23433;BME280;41331;45.412;10.992;2023-03-19T00:35:03;101243.69;;;10.01;83.74
23433;BME280;41331;45.412;10.992;2023-03-19T00:37:32;101242.56;;;9.88;84.82
23433;BME280;41331;45.412;10.992;2023-03-19T00:40:00;101237.16;;;9.74;86.35
23433;BME280;41331;45.412;10.992;2023-03-19T00:42:28;101233.03;;;9.77;85.53
23433;BME280;41331;45.412;10.992;2023-03-19T00:44:56;101235.44;;;9.78;85.83
23433;BME280;41331;45.412;10.992;2023-03-19T00:47:24;101234.84;;;9.81;84.58
23433;BME280;41331;45.412;10.992;2023-03-19T00:49:52;101241.97;;;9.77;85.03
23433;BME280;41331;45.412;10.992;2023-03-19T00:52:19;101239.69;;;9.71;85.74
23433;BME280;41331;45.412;10.992;2023-03-19T00:54:46;101237.06;;;9.66;86.25
23433;BME280;41331;45.412;10.992;2023-03-19T00:57:14;101242.19;;;9.67;86.27
23433;BME280;41331;45.412;10.992;2023-03-19T00:59:41;101231.53;;;9.71;86.12
23433;BME280;41331;45.412;10.992;2023-03-19T01:02:09;101234.94;;;9.76;85.24
23433;BME280;41331;45.412;10.992;2023-03-19T01:04:36;101230.91;;;9.74;85.84
23433;BME280;41331;45.412;10.992;2023-03-19T01:07:04;101221.88;;;9.65;87.14
23433;BME280;41331;45.412;10.992;2023-03-19T01:09:32;101212.06;;;9.77;86.40
23433;BME280;41331;45.412;10.992;2023-03-19T01:12:02;101210.78;;;9.75;86.06
23433;BME280;41331;45.412;10.992;2023-03-19T01:14:32;101202.53;;;9.80;86.04
23433;BME280;41331;45.412;10.992;2023-03-19T01:16:59;101197.38;;;9.78;86.00
23433;BME280;41331;45.412;10.992;2023-03-19T01:19:28;101201.88;;;9.83;85.63
23433;BME280;41331;45.412;10.992;2023-03-19T01:21:56;101204.63;;;9.83;85.16
23433;BME280;41331;45.412;10.992;2023-03-19T01:24:27;101211.97;;;9.96;83.73
23433;BME280;41331;45.412;10.992;2023-03-19T01:26:55;101218.09;;;10.02;83.17
23433;BME280;41331;45.412;10.992;2023-03-19T01:29:29;101210.34;;;9.95;83.20
23433;BME280;41331;45.412;10.992;2023-03-19T01:32:00;101213.25;;;9.99;82.92
23433;BME280;41331;45.412;10.992;2023-03-19T01:35:00;101210.47;;;9.90;83.60
23433;BME280;41331;45.412;10.992;2023-03-19T01:37:27;101201.38;;;9.95;83.53
23433;BME280;41331;45.412;10.992;2023-03-19T01:39:55;101194.22;;;9.99;83.78
23433;BME280;41331;45.412;10.992;2023-03-19T01:42:22;101190.56;;;10.03;84.17
23433;BME280;41331;45.412;10.992;2023-03-19T01:45:29;101180.72;;;9.94;84.50
23433;BME280;41331;45.412;10.992;2023-03-19T01:48:21;101184.38;;;9.89;84.74
23433;BME280;41331;45.412;10.992;2023-03-19T01:51:01;101171.69;;;9.84;84.34
23433;BME280;41331;45.412;10.992;2023-03-19T01:54:07;101177.94;;;9.85;84.32
23433;BME280;41331;45.412;10.992;2023-03-19T01:57:08;101185.06;;;9.95;83.52
23433;BME280;41331;45.412;10.992;2023-03-19T01:59:55;101185.19;;;9.90;83.21
23433;BME280;41331;45.412;10.992;2023-03-19T02:02:29;101194.47;;;9.75;84.08
23433;BME280;41331;45.412;10.992;2023-03-19T02:05:07;101186.59;;;9.87;83.70
23433;BME280;41331;45.412;10.992;2023-03-19T02:07:37;101177.53;;;9.78;85.13
23433;BME280;41331;45.412;10.992;2023-03-19T02:10:08;101182.81;;;9.74;84.94
23433;BME280;41331;45.412;10.992;2023-03-19T02:12:37;101176.94;;;9.67;84.57
23433;BME280;41331;45.412;10.992;2023-03-19T02:15:05;101187.53;;;9.55;85.07
23433;BME280;41331;45.412;10.992;2023-03-19T02:17:33;101189.34;;;9.59;84.89
23433;BME280;41331;45.412;10.992;2023-03-19T02:22:35;101177.56;;;9.50;85.16
23433;BME280;41331;45.412;10.992;2023-03-19T02:25:15;101161.28;;;9.50;85.48
23433;BME280;41331;45.412;10.992;2023-03-19T02:27:47;101183.72;;;9.56;84.67
23433;BME280;41331;45.412;10.992;2023-03-19T02:30:31;101178.28;;;9.56;84.22
23433;BME280;41331;45.412;10.992;2023-03-19T02:33:04;101179.97;;;9.52;83.96
23433;BME280;41331;45.412;10.992;2023-03-19T02:35:33;101180.50;;;9.54;84.11
23433;BME280;41331;45.412;10.992;2023-03-19T02:38:03;101186.22;;;9.52;83.90
23433;BME280;41331;45.412;10.992;2023-03-19T02:40:35;101184.94;;;9.50;83.61
23433;BME280;41331;45.412;10.992;2023-03-19T02:43:04;101192.47;;;9.53;83.41
23433;BME280;41331;45.412;10.992;2023-03-19T02:45:32;101194.38;;;9.52;83.15
23433;BME280;41331;45.412;10.992;2023-03-19T02:47:59;101190.66;;;9.48;83.97
23433;BME280;41331;45.412;10.992;2023-03-19T02:50:27;101192.06;;;9.46;84.69
23433;BME280;41331;45.412;10.992;2023-03-19T02:52:54;101198.78;;;9.48;83.91
23433;BME280;41331;45.412;10.992;2023-03-19T02:55:22;101190.94;;;9.47;83.42
23433;BME280;41331;45.412;10.992;2023-03-19T02:57:49;101196.59;;;9.37;84.45
23433;BME280;41331;45.412;10.992;2023-03-19T03:00:17;101196.28;;;9.24;84.93
23433;BME280;41331;45.412;10.992;2023-03-19T03:02:47;101200.19;;;9.18;84.64
23433;BME280;41331;45.412;10.992;2023-03-19T03:05:14;101196.66;;;9.18;85.17
23433;BME280;41331;45.412;10.992;2023-03-19T03:07:41;101197.56;;;9.13;85.55
23433;BME280;41331;45.412;10.992;2023-03-19T03:10:12;101191.94;;;9.23;85.18
23433;BME280;41331;45.412;10.992;2023-03-19T03:12:40;101196.47;;;9.28;85.63
23433;BME280;41331;45.412;10.992;2023-03-19T03:15:08;101197.19;;;9.33;85.03
23433;BME280;41331;45.412;10.992;2023-03-19T03:17:37;101202.34;;;9.35;84.69
23433;BME280;41331;45.412;10.992;2023-03-19T03:20:06;101198.81;;;9.34;84.58
23433;BME280;41331;45.412;10.992;2023-03-19T03:22:34;101196.91;;;9.49;84.19
23433;BME280;41331;45.412;10.992;2023-03-19T03:25:01;101188.84;;;9.44;85.19
23433;BME280;41331;45.412;10.992;2023-03-19T03:27:29;101188.84;;;9.44;84.85
23433;BME280;41331;45.412;10.992;2023-03-19T03:29:57;101189.84;;;9.48;85.02
23433;BME280;41331;45.412;10.992;2023-03-19T03:32:25;101197.41;;;9.37;85.41
23433;BME280;41331;45.412;10.992;2023-03-19T03:34:53;101204.34;;;9.57;84.82
23433;BME280;41331;45.412;10.992;2023-03-19T03:37:21;101201.31;;;9.58;84.47
23433;BME280;41331;45.412;10.992;2023-03-19T03:39:48;101207.56;;;9.45;85.21
23433;BME280;41331;45.412;10.992;2023-03-19T03:42:17;101205.94;;;9.58;84.87
23433;BME280;41331;45.412;10.992;2023-03-19T03:44:45;101200.22;;;9.46;86.38
23433;BME280;41331;45.412;10.992;2023-03-19T03:47:13;101200.09;;;9.37;86.66
23433;BME280;41331;45.412;10.992;2023-03-19T03:49:40;101203.22;;;9.30;86.83
23433;BME280;41331;45.412;10.992;2023-03-19T03:52:08;101206.88;;;9.40;86.78
23433;BME280;41331;45.412;10.992;2023-03-19T03:54:35;101209.38;;;9.36;86.43
23433;BME280;41331;45.412;10.992;2023-03-19T03:57:03;101209.78;;;9.29;86.93
23433;BME280;41331;45.412;10.992;2023-03-19T03:59:31;101212.59;;;9.24;87.28
23433;BME280;41331;45.412;10.992;2023-03-19T04:01:58;101212.88;;;9.37;88.11
23433;BME280;41331;45.412;10.992;2023-03-19T04:04:26;101216.31;;;9.42;86.96
23433;BME280;41331;45.412;10.992;2023-03-19T04:06:53;101228.88;;;9.38;87.02
23433;BME280;41331;45.412;10.992;2023-03-19T04:09:31;101222.94;;;9.22;89.49
23433;BME280;41331;45.412;10.992;2023-03-19T04:11:59;101231.03;;;9.08;91.20
23433;BME280;41331;45.412;10.992;2023-03-19T04:14:27;101229.56;;;9.16;90.91
23433;BME280;41331;45.412;10.992;2023-03-19T04:16:55;101225.03;;;9.12;91.51
23433;BME280;41331;45.412;10.992;2023-03-19T04:19:23;101232.44;;;8.92;94.35
23433;BME280;41331;45.412;10.992;2023-03-19T04:21:50;101237.56;;;8.94;94.43
23433;BME280;41331;45.412;10.992;2023-03-19T04:24:18;101237.09;;;9.05;92.39
23433;BME280;41331;45.412;10.992;2023-03-19T04:26:46;101235.66;;;8.94;90.99
23433;BME280;41331;45.412;10.992;2023-03-19T04:29:15;101240.31;;;8.75;92.54
23433;BME280;41331;45.412;10.992;2023-03-19T04:31:43;101239.44;;;8.79;92.04
23433;BME280;41331;45.412;10.992;2023-03-19T04:34:11;101244.16;;;8.74;92.84
23433;BME280;41331;45.412;10.992;2023-03-19T04:36:39;101248.47;;;8.75;93.29
23433;BME280;41331;45.412;10.992;2023-03-19T04:39:06;101253.53;;;8.63;94.87
23433;BME280;41331;45.412;10.992;2023-03-19T04:41:34;101267.25;;;8.71;94.39
23433;BME280;41331;45.412;10.992;2023-03-19T04:44:23;101260.63;;;8.77;93.83
23433;BME280;41331;45.412;10.992;2023-03-19T04:46:50;101273.78;;;8.70;95.40
23433;BME280;41331;45.412;10.992;2023-03-19T04:49:19;101270.41;;;8.60;96.12
23433;BME280;41331;45.412;10.992;2023-03-19T04:51:49;101269.66;;;8.73;95.29
23433;BME280;41331;45.412;10.992;2023-03-19T04:54:16;101271.72;;;8.81;94.98
23433;BME280;41331;45.412;10.992;2023-03-19T04:56:44;101275.22;;;8.81;95.24
23433;BME280;41331;45.412;10.992;2023-03-19T04:59:12;101278.53;;;8.78;95.09
23433;BME280;41331;45.412;10.992;2023-03-19T05:01:40;101274.41;;;8.81;94.59
23433;BME280;41331;45.412;10.992;2023-03-19T05:04:10;101285.28;;;8.81;94.60
23433;BME280;41331;45.412;10.992;2023-03-19T05:06:38;101284.97;;;8.82;93.91
23433;BME280;41331;45.412;10.992;2023-03-19T05:09:05;101287.59;;;8.88;93.15
23433;BME280;41331;45.412;10.992;2023-03-19T05:11:34;101285.19;;;8.86;93.60
23433;BME280;41331;45.412;10.992;2023-03-19T05:14:04;101289.75;;;8.91;93.76
23433;BME280;41331;45.412;10.992;2023-03-19T05:16:47;101282.72;;;8.90;94.13
23433;BME280;41331;45.412;10.992;2023-03-19T05:19:14;101275.69;;;9.02;93.58
23433;BME280;41331;45.412;10.992;2023-03-19T05:21:43;101280.31;;;9.02;93.80
23433;BME280;41331;45.412;10.992;2023-03-19T05:24:10;101286.19;;;9.09;93.68
23433;BME280;41331;45.412;10.992;2023-03-19T05:26:38;101298.44;;;9.06;93.21
23433;BME280;41331;45.412;10.992;2023-03-19T05:29:24;101300.75;;;8.99;92.99
23433;BME280;41331;45.412;10.992;2023-03-19T05:32:24;101301.63;;;8.95;94.04
23433;BME280;41331;45.412;10.992;2023-03-19T05:34:53;101299.81;;;8.90;94.19
23433;BME280;41331;45.412;10.992;2023-03-19T05:37:20;101302.28;;;8.87;94.44
23433;BME280;41331;45.412;10.992;2023-03-19T05:39:54;101302.00;;;8.88;94.50
23433;BME280;41331;45.412;10.992;2023-03-19T05:42:22;101307.72;;;8.87;94.26
23433;BME280;41331;45.412;10.992;2023-03-19T05:44:50;101311.94;;;8.79;94.57
23433;BME280;41331;45.412;10.992;2023-03-19T05:47:22;101315.44;;;8.79;94.72
23433;BME280;41331;45.412;10.992;2023-03-19T05:49:53;101321.94;;;8.97;93.73
23433;BME280;41331;45.412;10.992;2023-03-19T05:52:20;101323.28;;;9.00;93.46
23433;BME280;41331;45.412;10.992;2023-03-19T05:54:49;101317.31;;;8.98;93.84
23433;BME280;41331;45.412;10.992;2023-03-19T05:57:43;101313.22;;;9.00;93.56
23433;BME280;41331;45.412;10.992;2023-03-19T06:00:19;101307.25;;;8.98;93.84
23433;BME280;41331;45.412;10.992;2023-03-19T06:02:47;101314.50;;;9.03;93.44
23433;BME280;41331;45.412;10.992;2023-03-19T06:05:40;101307.47;;;9.02;93.48
23433;BME280;41331;45.412;10.992;2023-03-19T06:08:18;101316.66;;;9.06;93.14
23433;BME280;41331;45.412;10.992;2023-03-19T06:11:00;101328.16;;;8.98;93.06
23433;BME280;41331;45.412;10.992;2023-03-19T06:13:27;101324.22;;;9.09;92.27
23433;BME280;41331;45.412;10.992;2023-03-19T06:15:57;101323.25;;;9.19;91.50
23433;BME280;41331;45.412;10.992;2023-03-19T06:18:34;101322.72;;;9.17;91.16
23433;BME280;41331;45.412;10.992;2023-03-19T06:21:08;101328.06;;;9.22;91.40
23433;BME280;41331;45.412;10.992;2023-03-19T06:23:36;101335.56;;;9.44;89.20
23433;BME280;41331;45.412;10.992;2023-03-19T06:26:05;101331.53;;;9.41;89.42
23433;BME280;41331;45.412;10.992;2023-03-19T06:28:41;101334.13;;;9.32;90.32
23433;BME280;41331;45.412;10.992;2023-03-19T06:31:09;101329.03;;;9.45;90.44
23433;BME280;41331;45.412;10.992;2023-03-19T06:33:55;101330.38;;;9.61;89.50
23433;BME280;41331;45.412;10.992;2023-03-19T06:36:28;101327.88;;;9.65;89.26
23433;BME280;41331;45.412;10.992;2023-03-19T06:38:56;101328.94;;;9.64;89.07
23433;BME280;41331;45.412;10.992;2023-03-19T06:41:23;101334.91;;;9.66;88.40
23433;BME280;41331;45.412;10.992;2023-03-19T06:43:53;101336.41;;;9.72;88.43
23433;BME280;41331;45.412;10.992;2023-03-19T06:46:20;101340.38;;;9.79;87.80
23433;BME280;41331;45.412;10.992;2023-03-19T06:48:48;101349.31;;;9.94;87.30
23433;BME280;41331;45.412;10.992;2023-03-19T06:51:15;101358.91;;;10.05;86.28
23433;BME280;41331;45.412;10.992;2023-03-19T06:53:43;101353.97;;;10.07;85.95
23433;BME280;41331;45.412;10.992;2023-03-19T06:56:10;101353.97;;;10.07;87.00
23433;BME280;41331;45.412;10.992;2023-03-19T06:58:38;101360.53;;;10.20;86.60
23433;BME280;41331;45.412;10.992;2023-03-19T07:01:05;101349.94;;;10.32;85.82
23433;BME280;41331;45.412;10.992;2023-03-19T07:03:33;101356.41;;;10.36;85.15
23433;BME280;41331;45.412;10.992;2023-03-19T07:06:01;101362.22;;;10.43;85.60
23433;BME280;41331;45.412;10.992;2023-03-19T07:08:28;101359.91;;;10.50;84.70
23433;BME280;41331;45.412;10.992;2023-03-19T07:10:56;101349.69;;;10.70;84.07
23433;BME280;41331;45.412;10.992;2023-03-19T07:13:23;101366.38;;;10.91;83.14
23433;BME280;41331;45.412;10.992;2023-03-19T07:15:50;101358.47;;;11.25;82.36
23433;BME280;41331;45.412;10.992;2023-03-19T07:18:18;101357.28;;;11.71;79.83
23433;BME280;41331;45.412;10.992;2023-03-19T07:20:45;101352.59;;;11.94;77.61
23433;BME280;41331;45.412;10.992;2023-03-19T07:23:12;101343.94;;;11.92;78.48
23433;BME280;41331;45.412;10.992;2023-03-19T07:25:40;101350.50;;;11.91;79.30
23433;BME280;41331;45.412;10.992;2023-03-19T07:28:07;101355.59;;;11.84;79.34
23433;BME280;41331;45.412;10.992;2023-03-19T07:30:35;101360.75;;;11.85;79.85
23433;BME280;41331;45.412;10.992;2023-03-19T07:33:05;101368.75;;;11.59;81.22
23433;BME280;41331;45.412;10.992;2023-03-19T07:35:33;101372.47;;;11.63;82.20
23433;BME280;41331;45.412;10.992;2023-03-19T07:38:01;101383.22;;;11.60;83.50
23433;BME280;41331;45.412;10.992;2023-03-19T07:40:28;101372.06;;;11.70;81.65
23433;BME280;41331;45.412;10.992;2023-03-19T07:42:56;101381.50;;;11.95;81.70
23433;BME280;41331;45.412;10.992;2023-03-19T07:45:23;101384.25;;;12.04;80.95
23433;BME280;41331;45.412;10.992;2023-03-19T07:47:51;101383.72;;;11.93;80.94
23433;BME280;41331;45.412;10.992;2023-03-19T07:50:19;101375.34;;;12.21;80.74
23433;BME280;41331;45.412;10.992;2023-03-19T07:52:47;101375.56;;;12.59;76.83
23433;BME280;41331;45.412;10.992;2023-03-19T07:55:15;101375.44;;;12.73;75.82
23433;BME280;41331;45.412;10.992;2023-03-19T07:57:42;101382.22;;;12.75;74.78
23433;BME280;41331;45.412;10.992;2023-03-19T08:00:10;101382.19;;;12.84;75.78
23433;BME280;41331;45.412;10.992;2023-03-19T08:02:44;101375.44;;;12.55;75.54
23433;BME280;41331;45.412;10.992;2023-03-19T08:05:11;101375.13;;;12.74;76.98
23433;BME280;41331;45.412;10.992;2023-03-19T08:07:39;101373.53;;;12.90;75.58
23433;BME280;41331;45.412;10.992;2023-03-19T08:10:07;101376.25;;;13.16;76.17
23433;BME280;41331;45.412;10.992;2023-03-19T08:12:35;101375.97;;;13.27;75.11
23433;BME280;41331;45.412;10.992;2023-03-19T08:15:08;101372.09;;;13.36;72.66
23433;BME280;41331;45.412;10.992;2023-03-19T08:17:37;101363.38;;;13.43;75.30
23433;BME280;41331;45.412;10.992;2023-03-19T08:20:07;101367.81;;;13.65;79.65
23433;BME280;41331;45.412;10.992;2023-03-19T08:22:36;101369.41;;;13.74;78.46
23433;BME280;41331;45.412;10.992;2023-03-19T08:25:05;101379.91;;;13.64;77.11
23433;BME280;41331;45.412;10.992;2023-03-19T08:27:33;101375.72;;;13.66;74.47
23433;BME280;41331;45.412;10.992;2023-03-19T08:30:07;101382.09;;;13.79;76.39
23433;BME280;41331;45.412;10.992;2023-03-19T08:32:35;101382.72;;;13.85;74.89
23433;BME280;41331;45.412;10.992;2023-03-19T08:35:04;101380.34;;;13.74;77.57
23433;BME280;41331;45.412;10.992;2023-03-19T08:37:32;101381.19;;;14.13;76.60
23433;BME280;41331;45.412;10.992;2023-03-19T08:40:00;101382.16;;;14.09;74.87
23433;BME280;41331;45.412;10.992;2023-03-19T08:42:27;101389.63;;;14.29;73.49
23433;BME280;41331;45.412;10.992;2023-03-19T08:44:55;101388.75;;;14.16;74.30
23433;BME280;41331;45.412;10.992;2023-03-19T08:47:22;101389.91;;;14.07;76.56
23433;BME280;41331;45.412;10.992;2023-03-19T08:49:50;101390.44;;;14.30;75.25
23433;BME280;41331;45.412;10.992;2023-03-19T08:52:18;101393.50;;;13.90;75.16
23433;BME280;41331;45.412;10.992;2023-03-19T08:54:46;101403.00;;;13.92;76.60
23433;BME280;41331;45.412;10.992;2023-03-19T08:57:14;101393.28;;;14.04;76.55
23433;BME280;41331;45.412;10.992;2023-03-19T08:59:41;101393.03;;;13.88;76.74
23433;BME280;41331;45.412;10.992;2023-03-19T09:02:10;101400.09;;;13.89;77.39
23433;BME280;41331;45.412;10.992;2023-03-19T09:04:42;101398.66;;;13.91;77.00
23433;BME280;41331;45.412;10.992;2023-03-19T09:07:10;101400.72;;;14.03;77.29
23433;BME280;41331;45.412;10.992;2023-03-19T09:09:42;101395.72;;;14.35;75.35
23433;BME280;41331;45.412;10.992;2023-03-19T09:12:12;101400.59;;;14.29;74.64
23433;BME280;41331;45.412;10.992;2023-03-19T09:14:40;101400.97;;;14.19;75.86
23433;BME280;41331;45.412;10.992;2023-03-19T09:17:08;101406.66;;;14.35;75.28
23433;BME280;41331;45.412;10.992;2023-03-19T09:19:36;101400.94;;;14.28;72.11
23433;BME280;41331;45.412;10.992;2023-03-19T09:22:03;101407.41;;;14.14;71.33
23433;BME280;41331;45.412;10.992;2023-03-19T09:24:31;101403.09;;;14.43;71.05
23433;BME280;41331;45.412;10.992;2023-03-19T09:26:58;101409.81;;;14.54;70.59
23433;BME280;41331;45.412;10.992;2023-03-19T09:29:26;101405.34;;;14.49;70.53
23433;BME280;41331;45.412;10.992;2023-03-19T09:31:53;101407.38;;;14.23;70.32
23433;BME280;41331;45.412;10.992;2023-03-19T09:34:20;101413.16;;;13.92;72.76
23433;BME280;41331;45.412;10.992;2023-03-19T09:36:48;101420.06;;;13.89;73.77
23433;BME280;41331;45.412;10.992;2023-03-19T09:39:15;101419.13;;;14.23;71.61
23433;BME280;41331;45.412;10.992;2023-03-19T09:44:39;101417.06;;;13.65;76.29
23433;BME280;41331;45.412;10.992;2023-03-19T09:49:51;101422.31;;;13.96;73.46
23433;BME280;41331;45.412;10.992;2023-03-19T09:54:57;101421.22;;;13.80;70.59
23433;BME280;41331;45.412;10.992;2023-03-19T09:57:26;101420.81;;;13.43;74.69
23433;BME280;41331;45.412;10.992;2023-03-19T09:59:55;101418.41;;;13.15;78.28
23433;BME280;41331;45.412;10.992;2023-03-19T10:02:41;101414.03;;;13.58;79.04
23433;BME280;41331;45.412;10.992;2023-03-19T10:13:15;101410.13;;;14.23;71.47
23433;BME280;41331;45.412;10.992;2023-03-19T10:15:46;101400.09;;;14.65;68.69
23433;BME280;41331;45.412;10.992;2023-03-19T10:18:19;101405.22;;;14.96;68.76
23433;BME280;41331;45.412;10.992;2023-03-19T10:21:29;101400.94;;;15.74;63.92
23433;BME280;41331;45.412;10.992;2023-03-19T10:24:00;101399.75;;;16.20;61.68
23433;BME280;41331;45.412;10.992;2023-03-19T10:26:31;101402.75;;;16.27;58.01
23433;BME280;41331;45.412;10.992;2023-03-19T10:29:05;101403.06;;;16.14;55.40
23433;BME280;41331;45.412;10.992;2023-03-19T10:31:50;101381.78;;;16.47;54.79
23433;BME280;41331;45.412;10.992;2023-03-19T10:34:32;101388.63;;;17.18;48.88
23433;BME280;41331;45.412;10.992;2023-03-19T10:39:41;101387.91;;;17.65;46.79
23433;BME280;41331;45.412;10.992;2023-03-19T10:44:55;101381.50;;;17.73;49.92
23433;BME280;41331;45.412;10.992;2023-03-19T10:47:25;101370.53;;;18.75;47.67
23433;BME280;41331;45.412;10.992;2023-03-19T10:49:55;101370.97;;;18.77;46.27
23433;BME280;41331;45.412;10.992;2023-03-19T10:52:28;101375.84;;;18.84;45.65
23433;BME280;41331;45.412;10.992;2023-03-19T10:55:24;101377.44;;;19.43;44.36
23433;BME280;41331;45.412;10.992;2023-03-19T10:58:00;101371.41;;;19.80;45.14
23433;BME280;41331;45.412;10.992;2023-03-19T11:00:30;101365.78;;;20.22;45.04
23433;BME280;41331;45.412;10.992;2023-03-19T11:03:00;101361.88;;;20.50;42.93
23433;BME280;41331;45.412;10.992;2023-03-19T11:05:33;101363.84;;;19.77;43.75
23433;BME280;41331;45.412;10.992;2023-03-19T11:08:04;101356.72;;;19.99;43.50
23433;BME280;41331;45.412;10.992;2023-03-19T11:10:34;101357.13;;;20.24;41.90
23433;BME280;41331;45.412;10.992;2023-03-19T11:15:36;101343.47;;;19.85;43.77
23433;BME280;41331;45.412;10.992;2023-03-19T11:18:21;101349.16;;;20.18;46.78
23433;BME280;41331;45.412;10.992;2023-03-19T11:20:55;101341.44;;;20.05;45.70
23433;BME280;41331;45.412;10.992;2023-03-19T11:23:29;101342.63;;;20.07;43.85
23433;BME280;41331;45.412;10.992;2023-03-19T11:26:00;101326.66;;;20.47;42.97
23433;BME280;41331;45.412;10.992;2023-03-19T11:28:28;101338.88;;;20.19;41.86
23433;BME280;41331;45.412;10.992;2023-03-19T11:31:22;101333.38;;;20.19;42.57
23433;BME280;41331;45.412;10.992;2023-03-19T11:36:28;101319.09;;;20.70;40.58
23433;BME280;41331;45.412;10.992;2023-03-19T11:50:46;101299.09;;;20.84;39.50
23433;BME280;41331;45.412;10.992;2023-03-19T12:07:43;101267.31;;;20.40;40.39
23433;BME280;41331;45.412;10.992;2023-03-19T12:13:18;101252.56;;;20.03;42.84
23433;BME280;41331;45.412;10.992;2023-03-19T12:27:03;101262.88;;;17.19;49.03
23433;BME280;41331;45.412;10.992;2023-03-19T12:32:18;101260.38;;;16.98;48.42
23433;BME280;41331;45.412;10.992;2023-03-19T12:34:53;101264.41;;;16.88;50.03
23433;BME280;41331;45.412;10.992;2023-03-19T12:37:24;101269.97;;;17.20;49.46
23433;BME280;41331;45.412;10.992;2023-03-19T12:42:34;101258.38;;;16.82;48.31
23433;BME280;41331;45.412;10.992;2023-03-19T12:48:07;101252.84;;;16.54;50.20
23433;BME280;41331;45.412;10.992;2023-03-19T12:50:39;101250.69;;;16.48;50.28
23433;BME280;41331;45.412;10.992;2023-03-19T12:53:18;101245.94;;;16.61;50.93
23433;BME280;41331;45.412;10.992;2023-03-19T12:55:52;101246.91;;;16.80;50.69
23433;BME280;41331;45.412;10.992;2023-03-19T12:58:49;101230.28;;;16.89;50.00
23433;BME280;41331;45.412;10.992;2023-03-19T13:01:23;101235.63;;;17.14;49.95
23433;BME280;41331;45.412;10.992;2023-03-19T13:04:07;101228.88;;;17.27;48.05
23433;BME280;41331;45.412;10.992;2023-03-19T13:06:46;101230.50;;;17.75;47.75
23433;BME280;41331;45.412;10.992;2023-03-19T13:09:29;101237.19;;;18.09;46.93
23433;BME280;41331;45.412;10.992;2023-03-19T13:12:04;101223.81;;;17.76;48.13
23433;BME280;41331;45.412;10.992;2023-03-19T13:20:06;101220.09;;;18.20;48.02
23433;BME280;41331;45.412;10.992;2023-03-19T13:22:40;101218.44;;;18.34;47.42
23433;BME280;41331;45.412;10.992;2023-03-19T13:25:15;101216.69;;;17.91;45.51
23433;BME280;41331;45.412;10.992;2023-03-19T13:27:51;101213.59;;;17.93;45.59
23433;BME280;41331;45.412;10.992;2023-03-19T13:30:21;101212.34;;;17.90;45.61
23433;BME280;41331;45.412;10.992;2023-03-19T13:32:51;101215.47;;;17.89;46.14
23433;BME280;41331;45.412;10.992;2023-03-19T13:35:33;101207.59;;;18.06;47.03
23433;BME280;41331;45.412;10.992;2023-03-19T13:38:14;101209.16;;;18.43;47.10
23433;BME280;41331;45.412;10.992;2023-03-19T13:40:54;101209.59;;;18.45;47.26
23433;BME280;41331;45.412;10.992;2023-03-19T13:59:39;101210.47;;;19.10;42.85
23433;BME280;41331;45.412;10.992;2023-03-19T14:05:01;101193.25;;;18.17;45.76
23433;BME280;41331;45.412;10.992;2023-03-19T14:07:35;101189.38;;;17.82;47.07
23433;BME280;41331;45.412;10.992;2023-03-19T14:10:18;101193.03;;;17.55;47.99
23433;BME280;41331;45.412;10.992;2023-03-19T14:12:48;101192.59;;;17.53;49.22
23433;BME280;41331;45.412;10.992;2023-03-19T14:15:20;101183.44;;;17.65;47.77
23433;BME280;41331;45.412;10.992;2023-03-19T14:25:27;101175.94;;;17.14;49.63
23433;BME280;41331;45.412;10.992;2023-03-19T14:28:15;101180.91;;;17.08;52.01
23433;BME280;41331;45.412;10.992;2023-03-19T14:30:46;101179.63;;;16.90;51.50
23433;BME280;41331;45.412;10.992;2023-03-19T14:33:25;101176.19;;;16.93;52.49
23433;BME280;41331;45.412;10.992;2023-03-19T14:35:55;101181.69;;;16.93;52.85
23433;BME280;41331;45.412;10.992;2023-03-19T14:41:32;101162.75;;;16.92;49.31
23433;BME280;41331;45.412;10.992;2023-03-19T14:52:14;101169.72;;;16.57;53.71
23433;BME280;41331;45.412;10.992;2023-03-19T14:54:49;101165.91;;;16.62;53.87
23433;BME280;41331;45.412;10.992;2023-03-19T14:57:21;101173.69;;;16.72;53.53
23433;BME280;41331;45.412;10.992;2023-03-19T14:59:53;101169.16;;;16.52;54.59
23433;BME280;41331;45.412;10.992;2023-03-19T15:02:41;101164.78;;;16.51;54.16
23433;BME280;41331;45.412;10.992;2023-03-19T15:07:54;101170.38;;;16.26;55.08
23433;BME280;41331;45.412;10.992;2023-03-19T15:10:27;101164.56;;;16.28;55.75